Goodville, Texas
Current Conditions -  °F | °C
As of 12:55 PM on Thursday 23 Oct 2014 (Local Time) from KTPL Reporting Station
Few Clouds Few Clouds  
Wind Chill: 24°   Ceiling: Unl
Heat Index: 24°   Visibility: 10mi
Dew Point: 14°   Wind: 3mph
Humidity: 53%   Direction: 170°S
Pressure: 30.13"   Gusts: NA
Location:  31.1912°N, 97.0719°W
Report Text: KTPL 231755Z AUTO 17003KT 10SM FEW110 24/14 A3013 RMK AO1 10240 20170 57003
Loading
Personal Weather Stations






























Interactive Weather Map
Tropical Storm Tracking
New forecast layout! Learn more

10-Day Weather Forecast

Advertisements
Track Severe Weather on mobile